»·PEaware :: DAL181 KOAK-KSLC

DAL181 :: KOAK-KSLC

FLIGHT INFORMATION

Flight Status: Arrived
Operator:
Delta Air Lines
More flights by this operator :: More flights under this callsign
Pilot: Kevin M. (7)
Aircraft: BOEING 737-800
(B738)
More flights by this aircraft type
Origin: KOAK Metro Oakland Intl
United States
Destination: KSLC Salt Lake City Intl
United States
More flights between these airports :: More routes between these airports
Route: OAK5 MOGEE Q124 BVL WAATS5
File this flight plan on PilotEdge
Remarks:
Altitude:
(Current/Filed)
37,000ft
Speed:
(Current/Filed)
468kts
Departed: 11-Aug-20 12:39 PM
Arrived: 11-Aug-20 01:58 PM
Distance/Time
Traveled:
510nm/1:18
Distance/Time
To Go:
Arrived

Flight Plot

Page will automatically refresh every two minutes.

Flight plan parsing failed; only flown route is shown


Map Options




Map Legend


Flown Route
Filed Route
Departure Airport
Arrival Airport
Navaid (VOR, NDB)
Fix

Horizontal Profiles

Position Reports

Time Latitude Longitude Heading Altitude Ground
Speed
11-Aug-20 12:21 37.710256 -122.216624 26 17ft 0kts
11-Aug-20 12:22 37.710256 -122.216624 26 17ft 0kts
11-Aug-20 12:23 37.710256 -122.216624 26 17ft 0kts
11-Aug-20 12:24 37.710256 -122.216624 26 17ft 0kts
11-Aug-20 12:25 37.710256 -122.216624 26 17ft 0kts
11-Aug-20 12:26 37.710256 -122.216624 26 17ft 0kts
11-Aug-20 12:27 37.710256 -122.216624 26 17ft 0kts
11-Aug-20 12:28 37.710195 -122.216661 26 17ft 2kts
11-Aug-20 12:29 37.709885 -122.217154 122 17ft 0kts
11-Aug-20 12:30 37.709933 -122.217231 127 17ft 0kts
11-Aug-20 12:31 37.709933 -122.217231 127 17ft 0kts
11-Aug-20 12:32 37.709377 -122.216298 132 16ft 14kts
11-Aug-20 12:33 37.705168 -122.215935 129 16ft 21kts
11-Aug-20 12:34 37.702510 -122.213598 187 16ft 0kts
11-Aug-20 12:35 37.702510 -122.213598 187 16ft 0kts
11-Aug-20 12:36 37.702510 -122.213598 187 16ft 0kts
11-Aug-20 12:37 37.702407 -122.213621 194 16ft 5kts
11-Aug-20 12:38 37.714657 -122.234082 310 266ft 182kts
11-Aug-20 12:39 37.750741 -122.290389 309 1956ft 236kts
11-Aug-20 12:40 37.800898 -122.350014 352 5316ft 236kts
11-Aug-20 12:41 37.855689 -122.293304 57 7360ft 290kts
11-Aug-20 12:42 37.900433 -122.207205 56 10183ft 300kts
11-Aug-20 12:43 37.951645 -122.111296 56 11350ft 362kts
11-Aug-20 12:44 38.011669 -121.998877 56 12398ft 408kts
11-Aug-20 12:45 38.076420 -121.877510 56 14233ft 422kts
11-Aug-20 12:46 38.143195 -121.752198 56 16089ft 435kts
11-Aug-20 12:47 38.211865 -121.623204 56 17768ft 446kts
11-Aug-20 12:48 38.282463 -121.490448 55 19295ft 457kts
11-Aug-20 12:49 38.355301 -121.356113 51 20695ft 468kts
11-Aug-20 12:50 38.437642 -121.225019 51 21964ft 477kts
11-Aug-20 12:51 38.521000 -121.091068 50 22968ft 488kts
11-Aug-20 12:52 38.605950 -120.953480 49 23980ft 494kts
11-Aug-20 12:53 38.687233 -120.809931 52 24781ft 503kts
11-Aug-20 12:54 38.768164 -120.661655 52 25530ft 510kts
11-Aug-20 12:55 38.850140 -120.511547 52 26288ft 515kts
11-Aug-20 12:56 38.932101 -120.361341 53 27300ft 514kts
11-Aug-20 12:57 39.013750 -120.211629 54 28571ft 506kts
11-Aug-20 12:58 39.093810 -120.064489 54 29843ft 499kts
11-Aug-20 12:59 39.173155 -119.918564 54 30959ft 496kts
11-Aug-20 13:00 39.250734 -119.775762 54 31984ft 494kts
11-Aug-20 13:01 39.329205 -119.631190 54 33077ft 489kts
11-Aug-20 13:02 39.407085 -119.487564 54 34104ft 486kts
11-Aug-20 13:03 39.484551 -119.344522 54 35038ft 484kts
11-Aug-20 13:04 39.561379 -119.202536 54 35948ft 480kts
11-Aug-20 13:05 39.638065 -119.060640 54 36699ft 479kts
11-Aug-20 13:06 39.715238 -118.917740 54 36987ft 488kts
11-Aug-20 13:07 39.793938 -118.771811 54 37067ft 499kts
11-Aug-20 13:08 39.873784 -118.623609 54 37066ft 500kts
11-Aug-20 13:09 39.953520 -118.475378 54 37068ft 499kts
11-Aug-20 13:10 40.033008 -118.327432 55 37066ft 498kts
11-Aug-20 13:11 40.112566 -118.179233 55 37058ft 499kts
11-Aug-20 13:12 40.183637 -118.024847 67 37065ft 494kts
11-Aug-20 13:13 40.232392 -117.857786 72 37074ft 490kts
11-Aug-20 13:14 40.274987 -117.688346 73 37088ft 491kts
11-Aug-20 13:15 40.316164 -117.515933 73 37102ft 498kts
11-Aug-20 13:16 40.356620 -117.341932 74 37129ft 499kts
11-Aug-20 13:17 40.396484 -117.168189 74 37125ft 495kts
11-Aug-20 13:18 40.435974 -116.994313 75 37128ft 502kts
11-Aug-20 13:19 40.476170 -116.815690 75 37128ft 511kts
11-Aug-20 13:20 40.516082 -116.637014 74 37133ft 510kts
11-Aug-20 13:21 40.555407 -116.458074 80 37105ft 510kts
11-Aug-20 13:22 40.574906 -116.271969 86 37124ft 514kts
11-Aug-20 13:23 40.590556 -116.084707 87 37152ft 516kts
11-Aug-20 13:24 40.605036 -115.898129 87 37162ft 509kts
11-Aug-20 13:25 40.618802 -115.715555 86 37150ft 481kts
11-Aug-20 13:26 40.631513 -115.541321 87 37163ft 483kts
11-Aug-20 13:27 40.644218 -115.364285 87 37155ft 484kts
11-Aug-20 13:29 40.656517 -115.189354 88 37159ft 480kts
11-Aug-20 13:30 40.668440 -115.012841 87 37154ft 486kts
11-Aug-20 13:31 40.680526 -114.835634 86 37119ft 484kts
11-Aug-20 13:32 40.692157 -114.658895 86 37068ft 484kts
11-Aug-20 13:33 40.703357 -114.482685 88 37069ft 484kts
11-Aug-20 13:34 40.708291 -114.305708 90 37063ft 483kts
11-Aug-20 13:35 40.714226 -114.126414 89 37064ft 496kts
11-Aug-20 13:36 40.720562 -113.943419 89 35242ft 502kts
11-Aug-20 13:37 40.726821 -113.758065 89 31622ft 508kts
11-Aug-20 13:38 40.726552 -113.572136 92 27199ft 495kts
11-Aug-20 13:39 40.726198 -113.404893 88 25714ft 416kts
11-Aug-20 13:40 40.788011 -113.290154 32 23976ft 395kts
11-Aug-20 13:41 40.848537 -113.181322 95 22288ft 376kts
11-Aug-20 13:42 40.806887 -113.058656 123 20762ft 397kts
11-Aug-20 13:43 40.748602 -112.920688 120 17979ft 442kts
11-Aug-20 13:44 40.718699 -112.772214 91 16045ft 406kts
11-Aug-20 13:45 40.719173 -112.621023 90 15064ft 406kts
11-Aug-20 13:46 40.728325 -112.473626 77 14080ft 410kts
11-Aug-20 13:46 40.748923 -112.352693 77 13221ft 386kts
11-Aug-20 13:47 40.765257 -112.220771 89 12097ft 338kts
11-Aug-20 13:49 40.732725 -112.106396 145 12102ft 266kts
11-Aug-20 13:49 40.676714 -112.082506 176 12106ft 258kts
11-Aug-20 13:50 40.605506 -112.075748 177 11423ft 255kts
11-Aug-20 13:52 40.535882 -112.035559 102 10178ft 261kts
11-Aug-20 13:52 40.565592 -111.977168 8 9304ft 252kts
11-Aug-20 13:53 40.634420 -111.977325 351 7564ft 232kts
11-Aug-20 13:54 40.690077 -111.985326 352 5921ft 171kts
11-Aug-20 13:55 40.737360 -111.991137 353 5074ft 172kts
11-Aug-20 13:56 40.783500 -111.996478 354 4238ft 140kts
11-Aug-20 13:57 40.794865 -111.995608 173 4238ft 12kts
11-Aug-20 13:58 40.791012 -111.993342 83 4238ft 16kts
11-Aug-20 13:59 40.789944 -111.986766 141 4238ft 17kts
11-Aug-20 14:00 40.789106 -111.985597 133 4238ft 0kts
11-Aug-20 14:01 40.789106 -111.985597 133 4238ft 0kts

Navigation Log

Ident Type
Flight plan parsing failed, navigation log unavailable